createdAt,value
2018-08-07T00:01:12.170Z,21.50
2018-08-07T00:03:40.581Z,21.50
2018-08-07T00:06:09.123Z,21.50
2018-08-07T00:08:37.541Z,21.50
2018-08-07T00:11:06.074Z,21.30
2018-08-07T00:13:34.503Z,21.40
2018-08-07T00:16:02.944Z,21.40
2018-08-07T00:18:31.414Z,21.30
2018-08-07T00:21:00.020Z,21.30
2018-08-07T00:23:28.426Z,21.20
2018-08-07T00:25:56.797Z,21.20
2018-08-07T00:28:25.244Z,21.30
2018-08-07T00:30:53.633Z,21.30
2018-08-07T00:33:22.196Z,21.30
2018-08-07T00:35:50.669Z,21.20
2018-08-07T00:38:19.055Z,21.30
2018-08-07T00:40:47.563Z,21.30
2018-08-07T00:43:16.011Z,21.30
2018-08-07T00:45:44.487Z,21.20
2018-08-07T00:48:13.184Z,21.20
2018-08-07T00:50:41.605Z,21.10
2018-08-07T00:53:10.026Z,21.10
2018-08-07T00:55:38.426Z,21.00
2018-08-07T00:58:07.008Z,21.00
2018-08-07T01:00:35.438Z,21.00
2018-08-07T01:03:04.003Z,21.00
2018-08-07T01:05:32.433Z,20.90
2018-08-07T01:08:00.855Z,20.90
2018-08-07T01:10:29.322Z,20.70
2018-08-07T01:12:57.896Z,20.70
2018-08-07T01:15:26.481Z,20.80
2018-08-07T01:17:55.167Z,20.80
2018-08-07T01:20:24.172Z,20.80
2018-08-07T01:22:52.858Z,20.90
2018-08-07T01:25:23.266Z,20.90
2018-08-07T01:27:51.884Z,20.90
2018-08-07T01:30:25.254Z,20.70
2018-08-07T01:32:54.483Z,20.60
2018-08-07T01:35:23.381Z,20.60
2018-08-07T01:37:51.864Z,20.60
2018-08-07T01:40:20.351Z,20.60
2018-08-07T01:45:16.968Z,20.20
2018-08-07T01:47:45.471Z,20.30
2018-08-07T01:50:14.770Z,20.50
2018-08-07T01:52:43.260Z,20.50
2018-08-07T01:55:19.073Z,20.50
2018-08-07T01:57:47.417Z,20.50
2018-08-07T02:00:15.791Z,20.50
2018-08-07T02:02:44.240Z,20.50
2018-08-07T02:05:13.326Z,20.50
2018-08-07T02:07:42.404Z,20.40
2018-08-07T02:10:15.591Z,20.50
2018-08-07T02:12:43.982Z,20.50
2018-08-07T02:15:13.167Z,20.40
2018-08-07T02:17:41.754Z,20.40
2018-08-07T02:20:14.662Z,20.40
2018-08-07T02:22:43.825Z,20.50
2018-08-07T02:27:43.004Z,20.40
2018-08-07T02:30:12.562Z,20.40
2018-08-07T02:32:40.949Z,20.30
2018-08-07T02:35:11.113Z,20.30
2018-08-07T02:37:40.163Z,20.30
2018-08-07T02:40:09.646Z,20.30
2018-08-07T02:42:38.079Z,20.30
2018-08-07T02:45:08.750Z,20.30
2018-08-07T02:47:37.209Z,20.30
2018-08-07T02:50:06.262Z,20.30
2018-08-07T02:52:35.142Z,20.30
2018-08-07T02:55:03.868Z,20.30
2018-08-07T03:00:01.353Z,20.10
2018-08-07T03:02:29.735Z,20.10
2018-08-07T03:04:58.150Z,20.10
2018-08-07T03:07:26.556Z,20.00
2018-08-07T03:09:55.130Z,20.00
2018-08-07T03:12:23.632Z,20.00
2018-08-07T03:14:52.194Z,20.00
2018-08-07T03:17:20.611Z,20.00
2018-08-07T03:19:49.023Z,20.00
2018-08-07T03:22:17.482Z,20.00
2018-08-07T03:24:45.889Z,19.80
2018-08-07T03:27:14.367Z,19.90
2018-08-07T03:29:42.744Z,19.90
2018-08-07T03:32:11.098Z,19.90
2018-08-07T03:34:39.529Z,20.00
2018-08-07T03:37:07.964Z,20.00
2018-08-07T03:39:36.379Z,19.90
2018-08-07T03:42:05.084Z,19.90
2018-08-07T03:44:33.614Z,19.90
2018-08-07T03:47:02.063Z,20.00
2018-08-07T03:49:30.503Z,20.00
2018-08-07T03:51:58.926Z,20.00
2018-08-07T03:54:27.487Z,20.10
2018-08-07T03:56:55.846Z,20.10
2018-08-07T03:59:24.241Z,20.10
2018-08-07T04:01:52.723Z,20.20
2018-08-07T04:04:21.184Z,20.20
2018-08-07T04:06:49.584Z,20.10
2018-08-07T04:09:18.036Z,20.20
2018-08-07T04:11:46.428Z,20.20
2018-08-07T04:14:14.831Z,20.30
2018-08-07T04:16:48.638Z,20.30
2018-08-07T04:19:17.091Z,20.20
2018-08-07T04:21:45.547Z,20.30
2018-08-07T04:24:13.913Z,20.50
2018-08-07T04:26:42.363Z,20.60
2018-08-07T04:29:10.835Z,20.70
2018-08-07T04:31:39.291Z,20.80
2018-08-07T04:34:09.611Z,20.80
2018-08-07T04:36:38.142Z,21.00
2018-08-07T04:39:08.831Z,21.10
2018-08-07T04:41:37.565Z,21.20
2018-08-07T04:44:06.137Z,21.40
2018-08-07T04:46:34.583Z,21.60
2018-08-07T04:49:03.126Z,21.60
2018-08-07T04:51:31.505Z,21.80
2018-08-07T04:53:59.941Z,21.80
2018-08-07T04:56:28.393Z,22.00
2018-08-07T04:58:57.018Z,22.10
2018-08-07T05:01:25.388Z,22.30
2018-08-07T05:03:53.797Z,22.40
2018-08-07T05:06:22.384Z,22.60
2018-08-07T05:08:50.802Z,22.60
2018-08-07T05:11:19.254Z,22.70
2018-08-07T05:13:47.638Z,22.70
2018-08-07T05:16:16.072Z,23.00
2018-08-07T05:18:45.329Z,23.10
2018-08-07T05:21:13.759Z,23.20
2018-08-07T05:23:42.187Z,23.30
2018-08-07T05:26:10.534Z,23.50
2018-08-07T05:28:39.052Z,23.60
2018-08-07T05:31:07.469Z,23.70
2018-08-07T05:33:35.963Z,23.80
2018-08-07T05:36:04.384Z,24.00
2018-08-07T05:38:32.818Z,24.10
2018-08-07T05:41:01.332Z,24.20
2018-08-07T05:43:29.825Z,24.30
2018-08-07T05:45:58.363Z,24.40
2018-08-07T05:48:26.888Z,24.60
2018-08-07T05:50:55.740Z,24.70
2018-08-07T05:53:23.750Z,24.80
2018-08-07T05:55:52.139Z,24.90
2018-08-07T05:58:20.592Z,24.90
2018-08-07T06:00:49.094Z,25.10
2018-08-07T06:03:17.551Z,25.30
2018-08-07T06:05:45.985Z,25.40
2018-08-07T06:08:14.416Z,25.40
2018-08-07T06:10:42.971Z,25.50
2018-08-07T06:13:11.420Z,25.70
2018-08-07T06:15:39.848Z,25.70
2018-08-07T06:18:08.284Z,25.80
2018-08-07T06:20:36.658Z,25.90
2018-08-07T06:23:05.087Z,25.80
2018-08-07T06:25:33.588Z,25.90
2018-08-07T06:28:01.979Z,25.90
2018-08-07T06:30:30.434Z,26.00
2018-08-07T06:32:58.839Z,26.30
2018-08-07T06:35:27.269Z,26.40
2018-08-07T06:37:55.798Z,26.40
2018-08-07T06:40:24.246Z,26.50
2018-08-07T06:42:52.676Z,26.60
2018-08-07T06:45:21.119Z,26.50
2018-08-07T06:47:49.510Z,26.60
2018-08-07T06:50:19.947Z,26.50
2018-08-07T06:52:48.775Z,26.60
2018-08-07T06:55:17.403Z,26.70
2018-08-07T06:57:45.906Z,26.70
2018-08-07T07:00:20.202Z,26.70
2018-08-07T07:02:48.837Z,26.80
2018-08-07T07:05:17.479Z,26.90
2018-08-07T07:07:45.881Z,26.90
2018-08-07T07:10:14.595Z,27.00
2018-08-07T07:12:44.531Z,27.10
2018-08-07T07:15:14.126Z,27.20
2018-08-07T07:17:43.784Z,27.20
2018-08-07T07:20:13.931Z,27.30
2018-08-07T07:22:43.503Z,27.40
2018-08-07T07:25:12.232Z,27.40
2018-08-07T07:27:41.349Z,27.50
2018-08-07T07:30:16.525Z,27.50
2018-08-07T07:32:46.144Z,27.50
2018-08-07T07:35:15.167Z,27.50
2018-08-07T07:37:43.635Z,27.50
2018-08-07T07:40:12.065Z,27.50
2018-08-07T07:42:40.452Z,27.50
2018-08-07T07:45:10.722Z,27.50
2018-08-07T07:47:40.028Z,27.70
2018-08-07T07:50:10.696Z,27.80
2018-08-07T07:52:39.571Z,27.80
2018-08-07T07:55:08.911Z,28.00
2018-08-07T07:57:37.748Z,27.90
2018-08-07T08:00:09.035Z,28.00
2018-08-07T08:02:37.439Z,28.00
2018-08-07T08:05:06.154Z,28.10
2018-08-07T08:07:34.628Z,28.20
2018-08-07T08:10:03.083Z,28.30
2018-08-07T08:12:31.483Z,28.30
2018-08-07T08:14:59.898Z,28.30
2018-08-07T08:17:28.281Z,28.40
2018-08-07T08:19:56.739Z,28.40
2018-08-07T08:22:25.238Z,28.50
2018-08-07T08:24:53.713Z,28.50
2018-08-07T08:27:22.169Z,28.60
2018-08-07T08:29:50.713Z,28.60
2018-08-07T08:32:19.034Z,28.60
2018-08-07T08:34:47.424Z,28.70
2018-08-07T08:37:16.130Z,28.80
2018-08-07T08:39:44.580Z,28.80
2018-08-07T08:42:13.025Z,28.90
2018-08-07T08:44:41.476Z,28.90
2018-08-07T08:47:09.968Z,28.90
2018-08-07T08:49:38.468Z,29.00
2018-08-07T08:52:06.907Z,29.10
2018-08-07T08:54:35.395Z,29.10
2018-08-07T08:57:03.916Z,29.30
2018-08-07T08:59:32.350Z,29.30
2018-08-07T09:02:00.846Z,29.40
2018-08-07T09:04:29.207Z,29.40
2018-08-07T09:06:57.639Z,29.40
2018-08-07T09:09:26.111Z,29.50
2018-08-07T09:11:54.540Z,29.50
2018-08-07T09:14:22.891Z,29.50
2018-08-07T09:16:51.384Z,29.50
2018-08-07T09:19:19.876Z,29.50
2018-08-07T09:21:48.265Z,29.70
2018-08-07T09:24:16.663Z,29.70
2018-08-07T09:26:45.064Z,29.80
2018-08-07T09:29:13.468Z,29.70
2018-08-07T09:31:41.867Z,29.90
2018-08-07T09:34:10.283Z,29.70
2018-08-07T09:36:38.704Z,29.80
2018-08-07T09:39:09.647Z,29.90
2018-08-07T09:41:38.128Z,29.90
2018-08-07T09:44:07.480Z,29.90
2018-08-07T09:46:36.073Z,29.80
2018-08-07T09:49:05.291Z,30.00
2018-08-07T09:51:33.699Z,30.30
2018-08-07T09:54:02.159Z,30.20
2018-08-07T09:56:30.621Z,30.20
2018-08-07T09:58:59.087Z,30.30
2018-08-07T10:01:31.709Z,30.40
2018-08-07T10:04:00.652Z,30.40
2018-08-07T10:06:29.101Z,30.40
2018-08-07T10:08:57.685Z,30.40
2018-08-07T10:11:26.108Z,30.60
2018-08-07T10:13:54.565Z,30.60
2018-08-07T10:16:22.965Z,30.70
2018-08-07T10:18:51.431Z,30.80
2018-08-07T10:21:19.957Z,30.80
2018-08-07T10:23:48.378Z,31.00
2018-08-07T10:26:16.796Z,30.80
2018-08-07T10:28:45.225Z,30.80
2018-08-07T10:31:13.673Z,30.80
2018-08-07T10:33:42.073Z,30.90
2018-08-07T10:36:10.560Z,30.80
2018-08-07T10:38:39.032Z,30.90
2018-08-07T10:41:07.728Z,30.90
2018-08-07T10:43:36.169Z,30.90
2018-08-07T10:46:04.518Z,30.90
2018-08-07T10:48:32.942Z,31.00
2018-08-07T10:51:01.356Z,31.00
2018-08-07T10:53:29.758Z,31.00
2018-08-07T10:55:58.171Z,31.20
2018-08-07T10:58:26.652Z,31.20
2018-08-07T11:00:54.984Z,31.30
2018-08-07T11:03:23.458Z,31.20
2018-08-07T11:05:51.928Z,31.10
2018-08-07T11:08:20.352Z,31.00
2018-08-07T11:10:48.859Z,31.10
2018-08-07T11:13:17.241Z,31.20
2018-08-07T11:15:45.883Z,31.20
2018-08-07T11:18:14.307Z,31.40
2018-08-07T11:20:42.726Z,31.30
2018-08-07T11:23:11.115Z,31.20
2018-08-07T11:25:39.571Z,31.20
2018-08-07T11:28:08.089Z,31.50
2018-08-07T11:30:36.434Z,31.50
2018-08-07T11:33:04.980Z,31.40
2018-08-07T11:35:33.424Z,31.20
2018-08-07T11:38:02.819Z,31.10
2018-08-07T11:40:31.260Z,31.40
2018-08-07T11:42:59.905Z,31.20
2018-08-07T11:45:29.631Z,31.30
2018-08-07T11:47:58.121Z,31.40
2018-08-07T11:50:27.818Z,31.40
2018-08-07T11:52:56.999Z,31.50
2018-08-07T11:55:25.725Z,31.40
2018-08-07T11:57:54.870Z,31.40
2018-08-07T12:00:26.078Z,31.30
2018-08-07T12:02:54.567Z,31.30
2018-08-07T12:05:23.141Z,31.40
2018-08-07T12:07:51.679Z,31.20
2018-08-07T12:10:20.621Z,31.30
2018-08-07T12:12:49.006Z,31.30
2018-08-07T12:15:19.627Z,31.30
2018-08-07T12:17:48.245Z,31.30
2018-08-07T12:20:16.658Z,31.40
2018-08-07T12:22:45.080Z,31.30
2018-08-07T12:25:15.055Z,31.50
2018-08-07T12:27:43.505Z,31.50
2018-08-07T12:30:15.307Z,31.40
2018-08-07T12:32:43.795Z,31.40
2018-08-07T12:35:12.191Z,31.60
2018-08-07T12:37:40.814Z,31.50
2018-08-07T12:40:16.131Z,31.50
2018-08-07T12:42:44.693Z,31.60
2018-08-07T12:45:13.148Z,31.50
2018-08-07T12:47:42.487Z,31.50
2018-08-07T12:50:11.993Z,31.50
2018-08-07T12:52:40.513Z,31.40
2018-08-07T12:55:12.549Z,31.40
2018-08-07T12:57:40.969Z,31.40
2018-08-07T13:00:12.598Z,32.00
2018-08-07T13:02:41.034Z,32.00
2018-08-07T13:07:37.730Z,31.80
2018-08-07T13:10:08.911Z,31.80
2018-08-07T13:12:37.361Z,31.90
2018-08-07T13:15:07.032Z,31.90
2018-08-07T13:17:35.498Z,31.80
2018-08-07T13:20:05.477Z,31.70
2018-08-07T13:22:34.048Z,31.60
2018-08-07T13:25:02.517Z,31.60
2018-08-07T13:27:30.999Z,31.60
2018-08-07T13:29:59.387Z,31.60
2018-08-07T13:32:27.963Z,31.60
2018-08-07T13:34:56.340Z,31.70
2018-08-07T13:37:24.814Z,31.70
2018-08-07T13:39:53.228Z,31.70
2018-08-07T13:42:21.646Z,31.70
2018-08-07T13:44:50.060Z,31.80
2018-08-07T13:47:18.546Z,31.90
2018-08-07T13:49:47.047Z,31.80
2018-08-07T13:52:15.426Z,31.80
2018-08-07T13:54:43.936Z,32.00
2018-08-07T13:57:12.352Z,32.10
2018-08-07T13:59:40.796Z,32.00
2018-08-07T14:02:09.282Z,31.90
2018-08-07T14:04:37.680Z,31.80
2018-08-07T14:07:06.275Z,31.70
2018-08-07T14:09:34.894Z,31.70
2018-08-07T14:12:03.284Z,31.70
2018-08-07T14:14:31.736Z,31.70
2018-08-07T14:17:00.116Z,31.60
2018-08-07T14:19:28.616Z,31.60
2018-08-07T14:21:57.041Z,31.80
2018-08-07T14:24:25.469Z,31.70
2018-08-07T14:26:53.931Z,31.70
2018-08-07T14:29:22.404Z,31.70
2018-08-07T14:31:50.903Z,31.80
2018-08-07T14:34:19.334Z,31.80
2018-08-07T14:36:47.796Z,31.80
2018-08-07T14:39:16.227Z,31.70
2018-08-07T14:41:44.685Z,31.70
2018-08-07T14:44:13.144Z,31.80
2018-08-07T14:46:41.564Z,31.80
2018-08-07T14:49:09.965Z,31.80
2018-08-07T14:51:38.424Z,31.80
2018-08-07T14:54:06.962Z,31.70
2018-08-07T14:56:35.346Z,31.70
2018-08-07T14:59:03.766Z,31.70
2018-08-07T15:01:32.236Z,31.80
2018-08-07T15:04:00.636Z,31.80
2018-08-07T15:06:29.276Z,31.80
2018-08-07T15:08:57.639Z,32.00
2018-08-07T15:11:26.060Z,31.90
2018-08-07T15:13:54.509Z,31.80
2018-08-07T15:16:22.951Z,31.90
2018-08-07T15:18:51.477Z,31.90
2018-08-07T15:21:19.968Z,31.90
2018-08-07T15:23:48.387Z,31.80
2018-08-07T15:26:16.773Z,31.80
2018-08-07T15:28:45.224Z,31.70
2018-08-07T15:31:13.667Z,31.80
2018-08-07T15:33:42.094Z,31.80
2018-08-07T15:36:10.494Z,31.80
2018-08-07T15:38:38.975Z,31.80
2018-08-07T15:41:07.448Z,31.70
2018-08-07T15:43:35.936Z,31.70
2018-08-07T15:46:04.390Z,31.70
2018-08-07T15:48:32.839Z,31.70
2018-08-07T15:51:01.290Z,31.70
2018-08-07T15:53:29.710Z,31.70
2018-08-07T15:55:58.098Z,31.90
2018-08-07T15:58:26.600Z,31.80
2018-08-07T16:00:55.002Z,31.70
2018-08-07T16:03:23.400Z,31.60
2018-08-07T16:05:51.771Z,31.60
2018-08-07T16:08:20.238Z,31.70
2018-08-07T16:10:48.633Z,31.70
2018-08-07T16:13:17.018Z,31.70
2018-08-07T16:15:45.475Z,31.70
2018-08-07T16:18:13.865Z,31.70
2018-08-07T16:20:42.418Z,31.70
2018-08-07T16:23:10.933Z,31.60
2018-08-07T16:25:39.422Z,31.60
2018-08-07T16:28:08.018Z,31.60
2018-08-07T16:30:36.617Z,31.50
2018-08-07T16:33:05.006Z,31.50
2018-08-07T16:35:33.575Z,31.60
2018-08-07T16:38:01.971Z,31.70
2018-08-07T16:40:30.520Z,31.70
2018-08-07T16:42:59.056Z,31.70
2018-08-07T16:45:27.610Z,31.70
2018-08-07T16:47:56.063Z,31.70
2018-08-07T16:50:26.866Z,31.60
2018-08-07T16:52:56.313Z,31.50
2018-08-07T16:55:26.450Z,31.50
2018-08-07T16:57:54.957Z,31.50
2018-08-07T17:00:23.412Z,31.50
2018-08-07T17:02:51.896Z,31.60
2018-08-07T17:05:20.388Z,31.60
2018-08-07T17:07:49.621Z,31.50
2018-08-07T17:10:23.857Z,31.40
2018-08-07T17:12:52.391Z,31.40
2018-08-07T17:15:21.010Z,31.30
2018-08-07T17:17:49.716Z,31.40
2018-08-07T17:20:20.021Z,31.40
2018-08-07T17:22:49.065Z,31.30
2018-08-07T17:25:20.863Z,31.30
2018-08-07T17:27:49.822Z,31.30
2018-08-07T17:30:23.324Z,31.20
2018-08-07T17:33:17.154Z,31.10
2018-08-07T17:35:47.121Z,31.00
2018-08-07T17:38:15.696Z,31.00
2018-08-07T17:40:44.561Z,31.00
2018-08-07T17:43:13.064Z,30.90
2018-08-07T17:45:42.210Z,30.80
2018-08-07T17:48:11.564Z,30.80
2018-08-07T17:50:40.412Z,30.80
2018-08-07T17:53:09.388Z,30.70
2018-08-07T17:55:38.391Z,30.80
2018-08-07T17:58:07.856Z,30.70
2018-08-07T18:00:36.952Z,30.60
2018-08-07T18:03:05.940Z,30.60
2018-08-07T18:05:35.113Z,30.60
2018-08-07T18:08:04.339Z,30.60
2018-08-07T18:10:33.338Z,30.50
2018-08-07T18:13:02.512Z,30.50
2018-08-07T18:15:32.022Z,30.40
2018-08-07T18:18:00.521Z,30.30
2018-08-07T18:20:28.956Z,30.30
2018-08-07T18:22:57.425Z,30.30
2018-08-07T18:25:25.871Z,30.20
2018-08-07T18:27:54.310Z,30.10
2018-08-07T18:30:24.126Z,30.10
2018-08-07T18:32:52.658Z,30.00
2018-08-07T18:35:22.902Z,29.90
2018-08-07T18:37:51.548Z,29.90
2018-08-07T18:40:19.981Z,29.80
2018-08-07T18:42:48.745Z,29.70
2018-08-07T18:45:17.255Z,29.70
2018-08-07T18:47:46.224Z,29.70
2018-08-07T18:50:16.883Z,29.60
2018-08-07T18:52:45.261Z,29.50
2018-08-07T18:55:14.546Z,29.50
2018-08-07T18:57:43.819Z,29.40
2018-08-07T19:00:16.353Z,29.30
2018-08-07T19:02:44.783Z,29.30
2018-08-07T19:05:15.478Z,29.20
2018-08-07T19:07:44.148Z,29.10
2018-08-07T19:10:13.021Z,29.10
2018-08-07T19:12:42.035Z,29.00
2018-08-07T19:15:11.391Z,28.90
2018-08-07T19:17:39.778Z,28.90
2018-08-07T19:20:09.680Z,28.80
2018-08-07T19:22:38.098Z,28.80
2018-08-07T19:25:07.820Z,28.80
2018-08-07T19:27:36.211Z,28.70
2018-08-07T19:30:07.042Z,28.70
2018-08-07T19:32:35.512Z,28.60
2018-08-07T19:35:04.514Z,28.50
2018-08-07T19:37:32.910Z,28.50
2018-08-07T19:40:01.631Z,28.40
2018-08-07T19:42:30.089Z,28.30
2018-08-07T19:44:58.537Z,28.30
2018-08-07T19:47:26.979Z,28.30
2018-08-07T19:49:55.424Z,28.30
2018-08-07T19:52:23.767Z,28.20
2018-08-07T19:54:52.236Z,28.20
2018-08-07T19:57:20.894Z,28.20
2018-08-07T19:59:49.351Z,28.20
2018-08-07T20:02:17.944Z,28.10
2018-08-07T20:04:46.451Z,28.00
2018-08-07T20:07:15.011Z,28.00
2018-08-07T20:09:46.365Z,27.90
2018-08-07T20:12:14.841Z,27.90
2018-08-07T20:14:43.362Z,27.80
2018-08-07T20:17:11.966Z,27.80
2018-08-07T20:19:40.913Z,27.80
2018-08-07T20:22:15.350Z,27.70
2018-08-07T20:24:44.008Z,27.70
2018-08-07T20:27:12.607Z,27.60
2018-08-07T20:29:41.287Z,27.50
2018-08-07T20:32:10.430Z,27.50
2018-08-07T20:34:38.984Z,27.50
2018-08-07T20:37:07.699Z,27.40
2018-08-07T20:39:36.158Z,27.40
2018-08-07T20:42:04.740Z,27.40
2018-08-07T20:44:33.411Z,27.40
2018-08-07T20:47:02.081Z,27.30
2018-08-07T20:49:30.555Z,27.30
2018-08-07T20:51:58.966Z,27.20
2018-08-07T20:54:27.418Z,27.20
2018-08-07T20:56:56.060Z,27.10
2018-08-07T20:59:24.534Z,27.10
2018-08-07T21:01:53.066Z,27.00
2018-08-07T21:04:21.510Z,27.00
2018-08-07T21:06:49.933Z,26.90
2018-08-07T21:09:18.731Z,26.90
2018-08-07T21:11:47.662Z,26.90
2018-08-07T21:14:16.185Z,26.90
2018-08-07T21:16:44.576Z,26.80
2018-08-07T21:19:13.051Z,26.80
2018-08-07T21:21:41.522Z,26.70
2018-08-07T21:24:10.037Z,26.70
2018-08-07T21:26:38.455Z,26.70
2018-08-07T21:29:07.296Z,26.60
2018-08-07T21:31:35.799Z,26.60
2018-08-07T21:34:04.267Z,26.60
2018-08-07T21:36:32.763Z,26.60
2018-08-07T21:39:01.530Z,26.50
2018-08-07T21:41:29.946Z,26.50
2018-08-07T21:43:58.473Z,26.40
2018-08-07T21:46:26.948Z,26.40
2018-08-07T21:48:55.373Z,26.30
2018-08-07T21:51:23.888Z,26.30
2018-08-07T21:53:52.504Z,26.30
2018-08-07T21:56:20.891Z,26.30
2018-08-07T21:58:49.375Z,26.20
2018-08-07T22:01:17.963Z,26.10
2018-08-07T22:03:46.441Z,26.10
2018-08-07T22:06:14.866Z,26.10
2018-08-07T22:08:43.414Z,26.10
2018-08-07T22:11:11.998Z,25.90
2018-08-07T22:13:40.412Z,25.90
2018-08-07T22:16:08.806Z,25.80
2018-08-07T22:18:37.244Z,25.90
2018-08-07T22:21:05.656Z,25.90
2018-08-07T22:23:34.060Z,25.90
2018-08-07T22:26:02.518Z,25.90
2018-08-07T22:28:30.907Z,25.90
2018-08-07T22:30:59.351Z,25.80
2018-08-07T22:33:28.023Z,25.80
2018-08-07T22:35:56.505Z,25.80
2018-08-07T22:38:24.906Z,25.80
2018-08-07T22:40:53.306Z,25.70
2018-08-07T22:43:21.760Z,25.60
2018-08-07T22:45:50.238Z,25.60
2018-08-07T22:48:18.805Z,25.60
2018-08-07T22:50:47.293Z,25.50
2018-08-07T22:53:15.806Z,25.50
2018-08-07T22:55:44.239Z,25.50
2018-08-07T22:58:12.620Z,25.50
2018-08-07T23:00:41.084Z,25.50
2018-08-07T23:03:09.589Z,25.40
2018-08-07T23:05:38.023Z,25.30
2018-08-07T23:08:06.589Z,25.30
2018-08-07T23:10:35.104Z,25.30
2018-08-07T23:13:03.506Z,25.30
2018-08-07T23:15:32.106Z,25.10
2018-08-07T23:18:00.795Z,25.10
2018-08-07T23:20:29.218Z,25.10
2018-08-07T23:22:58.064Z,25.00
2018-08-07T23:25:26.490Z,25.00
2018-08-07T23:27:54.871Z,25.00
2018-08-07T23:30:23.281Z,25.00
2018-08-07T23:32:51.686Z,25.00
2018-08-07T23:35:20.030Z,24.80
2018-08-07T23:37:48.428Z,24.80
2018-08-07T23:40:16.922Z,24.70
2018-08-07T23:42:45.705Z,24.70
2018-08-07T23:45:15.282Z,24.60
2018-08-07T23:47:43.808Z,24.60
2018-08-07T23:50:13.119Z,24.70
2018-08-07T23:52:41.698Z,24.60
2018-08-07T23:55:10.865Z,24.60
2018-08-07T23:57:39.390Z,24.50
